Time;durP1;ratioP1;P1;durP2;ratioP2;P2;SDS_P1;SDS_P2;PMS_P1;PMS_P2;Temp;Humidity;BMP_temperature;BMP_pressure;BME280_temperature;BME280_humidity;BME280_pressure;Samples;Min_cycle;Max_cycle;Signal;HPM_P1;HPM_P2
2023/06/07 00:01:06;;;;;;;8.98;4.60;;;13.30;99.90;;;;;;5012707;28;20029;-74
2023/06/07 00:03:33;;;;;;;9.43;3.97;;;13.30;99.90;;;;;;5010802;28;20018;-74
2023/06/07 00:06:02;;;;;;;14.70;4.78;;;13.30;99.90;;;;;;5012725;28;20030;-74
2023/06/07 00:08:28;;;;;;;7.65;4.18;;;13.20;99.90;;;;;;5012478;28;20018;-73
2023/06/07 00:10:55;;;;;;;10.18;4.75;;;13.10;99.90;;;;;;5012705;28;20088;-74
2023/06/07 00:13:20;;;;;;;12.95;4.43;;;13.10;99.90;;;;;;5013387;28;20053;-73
2023/06/07 00:15:46;;;;;;;12.82;5.00;;;13.00;99.90;;;;;;5016123;28;20034;-73
2023/06/07 00:18:12;;;;;;;9.05;4.10;;;13.00;99.90;;;;;;5018197;28;20511;-74
2023/06/07 00:20:37;;;;;;;9.80;4.68;;;13.10;99.90;;;;;;5008562;28;20022;-74
2023/06/07 00:23:05;;;;;;;8.63;4.28;;;13.10;99.90;;;;;;5015908;28;20088;-73
2023/06/07 00:25:30;;;;;;;18.27;6.25;;;13.00;99.90;;;;;;5016366;28;20022;-74
2023/06/07 00:27:56;;;;;;;13.32;5.60;;;13.00;99.90;;;;;;5031248;28;20021;-74
2023/06/07 00:30:22;;;;;;;12.23;4.97;;;13.00;99.90;;;;;;5016276;28;20038;-74
2023/06/07 00:32:48;;;;;;;7.13;3.58;;;12.90;99.90;;;;;;5016067;28;20037;-73
2023/06/07 00:35:13;;;;;;;16.08;4.97;;;12.90;99.90;;;;;;5034235;28;20041;-74
2023/06/07 00:37:40;;;;;;;7.53;4.03;;;12.80;99.90;;;;;;5020276;28;20518;-74
2023/06/07 00:40:06;;;;;;;9.52;4.47;;;12.90;99.90;;;;;;5011606;28;20030;-73
2023/06/07 00:42:34;;;;;;;6.50;4.03;;;12.90;99.90;;;;;;4997533;28;20057;-73
2023/06/07 00:45:00;;;;;;;7.18;4.00;;;12.80;99.90;;;;;;4997657;28;20399;-73
2023/06/07 00:47:26;;;;;;;9.25;4.05;;;12.80;99.90;;;;;;5010801;28;20076;-74
2023/06/07 00:49:53;;;;;;;6.75;4.30;;;12.80;99.90;;;;;;5011883;28;20470;-74
2023/06/07 00:52:20;;;;;;;10.13;4.30;;;12.80;99.90;;;;;;5013538;28;20037;-72
2023/06/07 00:54:46;;;;;;;20.02;5.18;;;12.80;99.90;;;;;;5016523;28;20382;-74
2023/06/07 00:57:13;;;;;;;8.63;3.95;;;12.70;99.90;;;;;;5012820;28;20030;-72
2023/06/07 00:59:39;;;;;;;7.78;3.92;;;12.60;99.90;;;;;;5012691;28;20530;-72
2023/06/07 01:02:05;;;;;;;8.98;3.80;;;12.70;99.90;;;;;;5015349;28;20010;-73
2023/06/07 01:04:31;;;;;;;15.57;4.68;;;12.70;99.90;;;;;;5013482;28;20466;-73
2023/06/07 01:06:57;;;;;;;7.93;3.55;;;12.60;99.90;;;;;;5015208;28;20097;-73
2023/06/07 01:09:24;;;;;;;7.15;3.03;;;12.60;99.90;;;;;;5015722;28;20014;-73
2023/06/07 01:11:52;;;;;;;7.00;3.58;;;12.60;99.90;;;;;;5014825;28;20076;-73
2023/06/07 01:14:19;;;;;;;11.88;3.90;;;12.50;99.90;;;;;;5013956;28;20018;-73
2023/06/07 01:16:50;;;;;;;9.35;3.40;;;12.50;99.90;;;;;;5015424;28;20382;-73
2023/06/07 01:19:23;;;;;;;6.53;4.05;;;12.50;99.90;;;;;;5015327;28;20109;-73
2023/06/07 01:21:51;;;;;;;10.13;3.47;;;12.50;99.90;;;;;;5013910;28;20049;-73
2023/06/07 01:24:18;;;;;;;6.45;3.55;;;12.50;99.90;;;;;;5015426;28;20530;-73
2023/06/07 01:26:53;;;;;;;10.13;3.22;;;12.40;99.90;;;;;;5014564;28;20021;-72
2023/06/07 01:29:21;;;;;;;10.10;3.58;;;12.40;99.90;;;;;;4997795;28;20144;-73
2023/06/07 01:31:49;;;;;;;6.80;3.97;;;12.50;99.90;;;;;;5006438;28;20025;-73
2023/06/07 01:34:15;;;;;;;11.93;3.15;;;12.40;99.90;;;;;;5017149;28;20044;-73
2023/06/07 01:36:42;;;;;;;9.68;3.55;;;12.40;99.90;;;;;;5014828;28;20033;-72
2023/06/07 01:39:10;;;;;;;9.43;3.80;;;12.40;99.90;;;;;;5014992;28;20018;-72
2023/06/07 01:41:36;;;;;;;;;;;12.40;99.90;;;;;;5015229;28;20096;-72
2023/06/07 01:44:02;;;;;;;12.90;4.43;;;12.30;99.90;;;;;;5014775;28;19905;-73
2023/06/07 01:46:29;;;;;;;7.07;3.33;;;12.30;99.90;;;;;;5014871;28;20022;-73
2023/06/07 01:48:55;;;;;;;8.32;3.95;;;12.30;99.90;;;;;;5015469;28;20033;-73
2023/06/07 01:51:20;;;;;;;11.82;3.65;;;12.30;99.90;;;;;;5014592;28;20509;-73
2023/06/07 01:53:49;;;;;;;9.98;3.72;;;12.20;99.90;;;;;;5014715;28;20022;-73
2023/06/07 01:56:28;;;;;;;7.85;3.67;;;12.20;99.90;;;;;;5009879;28;20033;-73
2023/06/07 01:58:54;;;;;;;6.70;3.70;;;12.30;99.90;;;;;;4995134;28;20026;-72
2023/06/07 02:01:36;;;;;;;6.22;3.47;;;12.30;99.90;;;;;;4994894;28;20033;-72
2023/06/07 02:04:04;;;;;;;9.95;4.18;;;12.30;99.90;;;;;;4997486;28;20014;-73
2023/06/07 02:06:34;;;;;;;8.68;3.58;;;12.30;99.90;;;;;;4994757;28;20031;-72
2023/06/07 02:09:22;;;;;;;10.88;3.92;;;12.30;99.90;;;;;;5018384;28;20029;-72
2023/06/07 02:11:49;;;;;;;7.80;2.92;;;12.20;99.90;;;;;;5013053;28;20340;-72
2023/06/07 02:14:16;;;;;;;12.73;3.60;;;12.20;99.90;;;;;;5028083;28;20057;-73
2023/06/07 02:16:41;;;;;;;11.02;3.53;;;12.20;99.90;;;;;;5014193;28;20026;-73
2023/06/07 02:19:09;;;;;;;7.30;3.38;;;12.20;99.90;;;;;;5013563;28;20033;-73
2023/06/07 02:21:36;;;;;;;6.57;3.50;;;12.10;99.90;;;;;;5013340;28;20071;-72
2023/06/07 02:24:02;;;;;;;8.13;3.63;;;12.00;99.90;;;;;;5012596;28;20022;-72
2023/06/07 02:26:28;;;;;;;6.78;2.80;;;12.00;99.90;;;;;;5010550;28;20330;-74
2023/06/07 02:28:54;;;;;;;6.93;3.35;;;12.00;99.90;;;;;;4998124;28;20078;-71
2023/06/07 02:31:20;;;;;;;6.10;3.30;;;12.00;99.90;;;;;;5013911;28;20096;-72
2023/06/07 02:33:48;;;;;;;9.85;3.38;;;12.00;99.90;;;;;;5012334;28;20061;-72
2023/06/07 02:36:13;;;;;;;8.55;4.03;;;12.00;99.90;;;;;;5012498;28;20026;-72
2023/06/07 02:38:39;;;;;;;7.43;3.22;;;12.00;99.90;;;;;;5012931;28;20565;-73
2023/06/07 02:41:05;;;;;;;12.75;3.45;;;12.00;99.90;;;;;;4999691;28;20022;-72
2023/06/07 02:43:30;;;;;;;13.02;3.55;;;12.00;99.90;;;;;;4994943;28;20022;-72
2023/06/07 02:45:56;;;;;;;8.60;3.03;;;12.00;99.90;;;;;;5012655;28;20099;-74
2023/06/07 02:48:22;;;;;;;11.85;3.35;;;11.90;99.90;;;;;;5010529;28;20032;-71
2023/06/07 02:50:47;;;;;;;11.32;3.72;;;11.90;99.90;;;;;;5012545;28;20092;-72
2023/06/07 02:53:13;;;;;;;12.05;4.32;;;11.90;99.90;;;;;;5013626;28;20025;-73
2023/06/07 02:55:39;;;;;;;7.65;3.40;;;11.90;99.90;;;;;;5028153;28;20030;-73
2023/06/07 02:58:05;;;;;;;13.13;3.60;;;11.90;99.90;;;;;;5002941;28;20545;-72
2023/06/07 03:00:32;;;;;;;11.32;3.03;;;11.80;99.90;;;;;;5011882;28;20101;-74
2023/06/07 03:02:58;;;;;;;9.50;3.15;;;11.80;99.90;;;;;;5013278;28;20169;-73
2023/06/07 03:05:26;;;;;;;15.32;4.07;;;11.80;99.90;;;;;;5012064;28;20117;-73
2023/06/07 03:07:56;;;;;;;11.20;3.72;;;11.80;99.90;;;;;;5011297;28;20617;-73
2023/06/07 03:10:22;;;;;;;15.10;3.92;;;11.80;99.90;;;;;;5028062;28;20026;-72
2023/06/07 03:12:48;;;;;;;5.25;3.22;;;11.80;99.90;;;;;;5021649;28;20044;-72
2023/06/07 03:15:13;;;;;;;13.65;3.25;;;11.70;99.90;;;;;;5012645;28;20026;-74
2023/06/07 03:17:41;;;;;;;4.65;3.15;;;11.70;99.90;;;;;;5013504;28;20463;-74
2023/06/07 03:20:08;;;;;;;14.45;3.00;;;11.70;99.90;;;;;;5013087;28;20449;-71
2023/06/07 03:22:36;;;;;;;7.28;2.90;;;11.70;99.90;;;;;;5012375;28;20092;-73
2023/06/07 03:25:02;;;;;;;5.45;2.92;;;11.70;99.90;;;;;;5013204;28;20032;-72
2023/06/07 03:27:29;;;;;;;14.43;3.80;;;11.80;99.90;;;;;;5002113;28;20034;-72
2023/06/07 03:29:55;;;;;;;8.98;3.47;;;11.80;99.90;;;;;;4999038;28;20056;-72
2023/06/07 03:32:20;;;;;;;14.95;3.35;;;11.80;99.90;;;;;;5013180;28;20482;-73
2023/06/07 03:34:46;;;;;;;10.50;3.15;;;11.70;99.90;;;;;;5011061;28;20054;-72
2023/06/07 03:37:11;;;;;;;13.02;4.32;;;11.80;99.90;;;;;;5011959;28;20037;-73
2023/06/07 03:39:37;;;;;;;8.48;3.05;;;11.80;99.90;;;;;;5013190;28;20474;-72
2023/06/07 03:42:03;;;;;;;9.65;3.00;;;11.80;99.90;;;;;;5008425;28;20077;-73
2023/06/07 03:44:29;;;;;;;5.00;2.97;;;11.80;99.90;;;;;;5012038;28;20355;-73
2023/06/07 03:46:54;;;;;;;15.77;3.58;;;11.80;99.90;;;;;;5012887;28;20026;-72
2023/06/07 03:49:20;;;;;;;9.90;3.63;;;11.80;99.90;;;;;;5029837;28;20018;-72
2023/06/07 03:51:46;;;;;;;12.45;2.97;;;11.80;99.90;;;;;;5031212;28;20113;-72
2023/06/07 03:54:13;;;;;;;9.82;2.80;;;11.80;99.90;;;;;;5016403;28;20497;-73
2023/06/07 03:56:39;;;;;;;9.07;3.20;;;11.80;99.90;;;;;;5015927;28;20117;-72
2023/06/07 03:59:06;;;;;;;8.63;3.35;;;11.80;99.90;;;;;;4997166;28;20368;-72
2023/06/07 04:01:32;;;;;;;12.05;3.10;;;11.80;99.90;;;;;;5015895;28;20022;-72
2023/06/07 04:03:58;;;;;;;8.60;3.35;;;11.80;99.90;;;;;;5016365;28;20343;-72
2023/06/07 04:06:27;;;;;;;8.38;3.03;;;11.90;99.90;;;;;;5016312;28;20040;-72
2023/06/07 04:08:53;;;;;;;6.35;3.35;;;11.90;99.90;;;;;;5015561;28;20030;-72
2023/06/07 04:11:19;;;;;;;9.57;2.80;;;11.80;99.90;;;;;;5016489;28;20077;-72
2023/06/07 04:13:45;;;;;;;10.85;3.17;;;11.80;99.90;;;;;;5013425;28;20026;-71
2023/06/07 04:16:11;;;;;;;9.38;3.22;;;11.80;99.90;;;;;;5015677;28;20041;-73
2023/06/07 04:18:37;;;;;;;10.60;3.42;;;11.80;99.90;;;;;;5015772;28;20038;-72
2023/06/07 04:21:03;;;;;;;16.65;3.40;;;11.80;99.90;;;;;;5016191;28;20030;-74
2023/06/07 04:23:29;;;;;;;5.72;3.17;;;11.80;99.90;;;;;;5014977;28;20033;-72
2023/06/07 04:25:55;;;;;;;10.48;3.13;;;11.80;99.90;;;;;;5016498;28;20390;-72
2023/06/07 04:28:23;;;;;;;12.23;3.30;;;11.90;99.90;;;;;;5003557;28;20402;-72
2023/06/07 04:30:51;;;;;;;11.38;3.60;;;12.00;99.90;;;;;;5004091;28;20128;-73
2023/06/07 04:33:19;;;;;;;6.47;3.20;;;11.90;99.90;;;;;;5016465;28;20022;-73
2023/06/07 04:35:45;;;;;;;11.18;3.03;;;11.90;99.90;;;;;;5014570;28;20037;-74
2023/06/07 04:38:15;;;;;;;16.35;3.90;;;11.90;99.90;;;;;;5015906;28;20072;-73
2023/06/07 04:40:42;;;;;;;13.77;3.30;;;11.90;99.90;;;;;;5015155;28;20100;-73
2023/06/07 04:43:10;;;;;;;6.65;3.78;;;11.90;99.90;;;;;;5011138;28;20026;-73
2023/06/07 04:45:39;;;;;;;4.95;2.95;;;11.90;99.90;;;;;;5015056;28;20056;-72
2023/06/07 04:48:07;;;;;;;9.20;3.03;;;11.90;99.90;;;;;;5015594;28;20113;-73
2023/06/07 04:50:38;;;;;;;26.42;3.65;;;11.90;99.90;;;;;;5015028;28;20109;-72
2023/06/07 04:53:04;;;;;;;15.55;3.03;;;12.00;99.90;;;;;;5015757;28;20393;-73
2023/06/07 04:55:34;;;;;;;7.60;2.92;;;12.00;99.90;;;;;;5015521;28;20022;-72
2023/06/07 04:58:05;;;;;;;4.55;3.30;;;12.00;99.90;;;;;;5010212;28;20030;-72
2023/06/07 05:00:31;;;;;;;17.65;3.67;;;12.10;99.90;;;;;;5000756;28;20463;-72
2023/06/07 05:02:58;;;;;;;6.18;3.35;;;12.10;99.90;;;;;;5013600;28;20056;-74
2023/06/07 05:05:24;;;;;;;8.73;3.50;;;12.20;99.90;;;;;;5015426;28;20034;-72
2023/06/07 05:07:49;;;;;;;19.05;4.95;;;12.20;99.90;;;;;;5013748;28;20038;-73
2023/06/07 05:10:17;;;;;;;6.53;3.20;;;12.20;99.90;;;;;;5014607;28;20033;-73
2023/06/07 05:12:42;;;;;;;15.73;6.30;;;12.30;99.90;;;;;;5014470;28;20033;-73
2023/06/07 05:15:09;;;;;;;12.43;4.03;;;12.30;99.90;;;;;;5005522;28;20494;-73
2023/06/07 05:17:34;;;;;;;11.20;4.32;;;12.40;99.90;;;;;;5030287;28;20049;-71
2023/06/07 05:20:00;;;;;;;4.95;2.97;;;12.40;99.90;;;;;;5013331;28;20021;-72
2023/06/07 05:22:26;;;;;;;15.15;3.60;;;12.50;99.90;;;;;;5013803;28;20062;-73
2023/06/07 05:24:52;;;;;;;10.82;4.03;;;12.50;99.90;;;;;;5012994;28;20026;-73
2023/06/07 05:27:18;;;;;;;17.13;3.55;;;12.40;99.90;;;;;;5013190;28;20029;-72
2023/06/07 05:29:43;;;;;;;12.30;3.70;;;12.40;99.90;;;;;;5013357;28;20116;-73
2023/06/07 05:32:09;;;;;;;8.68;3.67;;;12.40;99.90;;;;;;5014839;28;20097;-73
2023/06/07 05:34:35;;;;;;;5.60;2.83;;;12.40;99.90;;;;;;5012952;28;20560;-72
2023/06/07 05:37:04;;;;;;;15.48;3.63;;;12.50;99.90;;;;;;5014922;28;20100;-72
2023/06/07 05:39:29;;;;;;;6.80;2.85;;;12.50;99.90;;;;;;5015009;28;20025;-72
2023/06/07 05:41:55;;;;;;;12.70;3.47;;;12.60;99.90;;;;;;5013404;28;20113;-72
2023/06/07 05:44:21;;;;;;;13.32;3.47;;;12.60;99.90;;;;;;5012571;28;20025;-72
2023/06/07 05:46:46;;;;;;;8.63;2.58;;;12.70;99.90;;;;;;5014636;28;20022;-72
2023/06/07 05:49:12;;;;;;;3.97;2.63;;;12.70;99.90;;;;;;5014707;28;20030;-73
2023/06/07 05:51:38;;;;;;;8.77;2.70;;;12.80;99.90;;;;;;5013308;28;20061;-72
2023/06/07 05:54:06;;;;;;;6.10;2.83;;;12.80;99.90;;;;;;5013768;28;20062;-73
2023/06/07 05:56:32;;;;;;;10.55;2.60;;;12.70;99.90;;;;;;5013789;28;20474;-72
2023/06/07 05:58:58;;;;;;;9.55;3.25;;;12.70;99.90;;;;;;5013785;28;20025;-73
2023/06/07 06:01:23;;;;;;;12.70;2.50;;;12.70;99.90;;;;;;5013587;28;20067;-73
2023/06/07 06:03:49;;;;;;;12.80;2.92;;;12.70;99.90;;;;;;5013650;28;20497;-72
2023/06/07 06:06:17;;;;;;;8.38;3.58;;;12.70;99.90;;;;;;5011666;28;20026;-71
2023/06/07 06:08:44;;;;;;;12.18;2.90;;;12.60;99.90;;;;;;5014203;28;20041;-73
2023/06/07 06:11:13;;;;;;;14.27;3.97;;;12.60;99.90;;;;;;5029104;28;20171;-72
2023/06/07 06:13:40;;;;;;;11.10;3.28;;;12.60;99.90;;;;;;5013303;28;20498;-71
2023/06/07 06:16:06;;;;;;;8.63;2.88;;;12.40;99.90;;;;;;5014036;28;20033;-72
2023/06/07 06:18:32;;;;;;;10.40;3.97;;;12.40;99.90;;;;;;5013414;28;20026;-72
2023/06/07 06:20:58;;;;;;;6.47;3.03;;;12.50;99.90;;;;;;5012785;28;20026;-72
2023/06/07 06:23:23;;;;;;;8.05;3.28;;;12.50;99.90;;;;;;5013216;28;20026;-72
2023/06/07 06:25:50;;;;;;;13.10;3.85;;;12.50;99.90;;;;;;5014026;28;20394;-72
2023/06/07 06:28:16;;;;;;;11.93;2.83;;;12.60;99.90;;;;;;5013119;28;20041;-70
2023/06/07 06:30:42;;;;;;;11.70;3.67;;;12.60;99.90;;;;;;5013352;28;20036;-72
2023/06/07 06:33:08;;;;;;;14.70;5.18;;;12.60;99.90;;;;;;5013614;28;20034;-73
2023/06/07 06:35:33;;;;;;;8.30;2.97;;;12.70;99.90;;;;;;5013104;28;20029;-74
2023/06/07 06:37:59;;;;;;;7.63;2.63;;;12.80;99.90;;;;;;5012562;28;20022;-73
2023/06/07 06:40:26;;;;;;;5.90;3.72;;;12.90;99.90;;;;;;5012944;28;20060;-72
2023/06/07 06:42:52;;;;;;;18.40;3.50;;;13.00;99.90;;;;;;5012535;28;20057;-73
2023/06/07 06:45:18;;;;;;;11.18;3.28;;;13.20;99.90;;;;;;5012354;28;20026;-73
2023/06/07 06:47:44;;;;;;;33.30;3.50;;;13.50;99.90;;;;;;5012115;28;20029;-73
2023/06/07 06:50:11;;;;;;;27.40;3.90;;;13.70;99.90;;;;;;5027850;28;20046;-72
2023/06/07 06:52:41;;;;;;;8.98;3.50;;;14.00;99.90;;;;;;5011708;28;20537;-73
2023/06/07 06:55:07;;;;;;;15.13;3.10;;;14.20;99.90;;;;;;5011660;28;20121;-72
2023/06/07 06:57:33;;;;;;;6.05;2.92;;;14.20;99.90;;;;;;5015695;28;20030;-72
2023/06/07 07:00:00;;;;;;;7.15;2.95;;;14.30;99.90;;;;;;5005761;28;20033;-72
2023/06/07 07:02:26;;;;;;;3.22;1.80;;;14.70;99.90;;;;;;5011898;28;20022;-72
2023/06/07 07:04:52;;;;;;;11.85;3.88;;;15.40;99.90;;;;;;5013397;28;20037;-72
2023/06/07 07:07:18;;;;;;;8.38;2.92;;;16.70;99.90;;;;;;5011907;28;20036;-72
2023/06/07 07:09:44;;;;;;;4.30;2.72;;;17.30;99.90;;;;;;5013280;28;20116;-72
2023/06/07 07:12:11;;;;;;;12.15;3.33;;;16.90;99.90;;;;;;5013259;28;20026;-73
2023/06/07 07:14:36;;;;;;;8.25;3.50;;;16.40;99.90;;;;;;5012481;28;20463;-73
2023/06/07 07:17:02;;;;;;;4.53;2.80;;;17.10;99.90;;;;;;5011937;28;20112;-72
2023/06/07 07:19:28;;;;;;;9.27;2.20;;;18.20;99.90;;;;;;5013140;28;20049;-72
2023/06/07 07:21:54;;;;;;;9.88;2.72;;;18.90;99.90;;;;;;5012737;28;20438;-73
2023/06/07 07:24:19;;;;;;;7.97;2.97;;;19.40;99.90;;;;;;5015279;28;20088;-72
2023/06/07 07:26:46;;;;;;;5.75;3.65;;;19.40;99.90;;;;;;5016583;28;20032;-72
2023/06/07 07:29:11;;;;;;;11.52;3.40;;;19.40;99.90;;;;;;5018965;28;20049;-73
2023/06/07 07:31:37;;;;;;;9.63;3.15;;;19.10;99.90;;;;;;5019453;28;20076;-72
2023/06/07 07:34:03;;;;;;;8.25;3.13;;;18.70;99.90;;;;;;5019704;28;20037;-72
2023/06/07 07:36:35;;;;;;;8.02;2.42;;;18.10;99.90;;;;;;5014832;28;20494;-72
2023/06/07 07:39:05;;;;;;;7.63;3.03;;;18.00;99.90;;;;;;5012922;28;20022;-71
2023/06/07 07:41:32;;;;;;;9.32;2.28;;;17.90;99.90;;;;;;5016741;28;20041;-71
2023/06/07 07:43:58;;;;;;;7.47;2.50;;;18.20;99.90;;;;;;5026236;28;20014;-73
2023/06/07 07:46:23;;;;;;;10.93;3.38;;;18.30;99.90;;;;;;5014521;28;20513;-71
2023/06/07 07:48:49;;;;;;;15.98;3.65;;;18.20;99.90;;;;;;5018953;28;20478;-72
2023/06/07 07:51:15;;;;;;;6.32;2.95;;;17.70;99.90;;;;;;5018553;28;20080;-71
2023/06/07 07:53:44;;;;;;;10.00;3.10;;;17.70;99.90;;;;;;5018374;28;20029;-73
2023/06/07 07:56:10;;;;;;;7.38;2.55;;;17.80;99.90;;;;;;5017360;28;20094;-71
2023/06/07 07:58:36;;;;;;;5.63;2.30;;;18.00;99.90;;;;;;5015971;28;20058;-75
2023/06/07 08:01:02;;;;;;;6.47;2.55;;;17.90;99.90;;;;;;5018919;28;20026;-75
2023/06/07 08:03:29;;;;;;;8.02;3.10;;;17.80;99.90;;;;;;5017306;28;20049;-72
2023/06/07 08:05:55;;;;;;;5.50;2.43;;;17.70;99.90;;;;;;5018803;28;20025;-72
2023/06/07 08:08:21;;;;;;;9.18;2.13;;;17.30;99.90;;;;;;5017041;28;20153;-72
2023/06/07 08:10:47;;;;;;;6.57;2.42;;;17.50;99.90;;;;;;5015958;28;20445;-72
2023/06/07 08:13:13;;;;;;;8.27;2.30;;;18.00;99.90;;;;;;5015498;28;20026;-72
2023/06/07 08:15:39;;;;;;;6.10;2.22;;;18.60;99.90;;;;;;5018604;28;20029;-73
2023/06/07 08:18:05;;;;;;;9.18;2.50;;;19.00;99.90;;;;;;5017424;28;20442;-74
2023/06/07 08:20:31;;;;;;;7.15;2.60;;;19.30;99.90;;;;;;5016105;28;20493;-74
2023/06/07 08:22:56;;;;;;;7.30;2.50;;;19.30;99.90;;;;;;5018302;28;20088;-73
2023/06/07 08:25:22;;;;;;;6.75;2.63;;;19.20;99.90;;;;;;5018884;28;20022;-73
2023/06/07 08:27:48;;;;;;;4.45;2.25;;;19.00;99.90;;;;;;5018752;28;20096;-73
2023/06/07 08:30:14;;;;;;;9.80;2.78;;;18.60;99.90;;;;;;5019889;28;20030;-74
2023/06/07 08:32:40;;;;;;;6.35;2.28;;;18.40;99.90;;;;;;5017754;28;20028;-73
2023/06/07 08:35:07;;;;;;;9.02;2.75;;;18.00;99.90;;;;;;5017385;28;20112;-72
2023/06/07 08:37:33;;;;;;;4.25;2.50;;;17.70;99.90;;;;;;5016147;28;20014;-72
2023/06/07 08:39:59;;;;;;;4.65;3.00;;;17.60;99.90;;;;;;5015964;28;20037;-72
2023/06/07 08:42:25;;;;;;;6.88;2.40;;;17.90;99.90;;;;;;5029384;28;20025;-72
2023/06/07 08:44:51;;;;;;;7.82;2.70;;;17.90;99.90;;;;;;5015872;28;20033;-72
2023/06/07 08:47:20;;;;;;;10.00;2.50;;;17.90;99.90;;;;;;5014562;28;20478;-72
2023/06/07 08:49:48;;;;;;;9.85;3.35;;;18.00;99.90;;;;;;5030661;28;20030;-72
2023/06/07 08:52:15;;;;;;;7.65;2.88;;;18.10;99.90;;;;;;5014955;28;20029;-73
2023/06/07 08:54:43;;;;;;;7.38;2.45;;;18.20;99.90;;;;;;5030506;28;20018;-72
2023/06/07 08:57:09;;;;;;;;;;;18.40;99.90;;;;;;5008740;28;20470;-73
2023/06/07 08:59:38;;;;;;;6.22;2.28;;;18.80;99.90;;;;;;5000347;28;19967;-72
2023/06/07 09:02:04;;;;;;;8.65;2.42;;;19.30;99.90;;;;;;5013959;28;20406;-72
2023/06/07 09:04:30;;;;;;;5.50;2.67;;;19.50;99.90;;;;;;5014576;28;20025;-73
2023/06/07 09:06:56;;;;;;;6.40;2.03;;;19.60;99.90;;;;;;5014569;28;20534;-73
2023/06/07 09:09:21;;;;;;;11.15;3.22;;;19.60;99.90;;;;;;5015550;28;20096;-73
2023/06/07 09:11:54;;;;;;;10.23;2.55;;;19.50;99.90;;;;;;5012458;28;20018;-75
2023/06/07 09:14:20;;;;;;;4.35;1.90;;;19.50;99.90;;;;;;5007897;28;20030;-75
2023/06/07 09:16:54;;;;;;;7.83;2.80;;;19.70;99.90;;;;;;5015205;28;20022;-74
2023/06/07 09:19:31;;;;;;;5.25;2.47;;;19.90;99.90;;;;;;5014517;28;20026;-73
2023/06/07 09:21:58;;;;;;;5.43;2.58;;;20.10;99.90;;;;;;5014993;28;20022;-74
2023/06/07 09:24:31;;;;;;;12.52;2.80;;;20.10;99.90;;;;;;5015430;28;20022;-72
2023/06/07 09:26:58;;;;;;;10.98;2.67;;;20.10;99.90;;;;;;5012967;28;20030;-72
2023/06/07 09:29:27;;;;;;;11.15;2.97;;;20.10;99.90;;;;;;5013994;28;20042;-71
2023/06/07 09:31:54;;;;;;;6.47;2.58;;;20.20;99.90;;;;;;5014276;28;20031;-71
2023/06/07 09:34:26;;;;;;;6.30;3.08;;;20.10;99.90;;;;;;5014527;28;20382;-72
2023/06/07 09:36:57;;;;;;;9.68;2.88;;;20.30;99.90;;;;;;5014651;28;20092;-73
2023/06/07 09:39:27;;;;;;;5.22;2.00;;;20.40;99.90;;;;;;5005888;28;20018;-73
2023/06/07 09:41:55;;;;;;;4.85;2.28;;;20.50;99.90;;;;;;5014432;28;20058;-73
2023/06/07 09:44:31;;;;;;;6.78;2.85;;;20.30;99.90;;;;;;5014810;28;20018;-74
2023/06/07 09:46:58;;;;;;;7.97;2.72;;;20.10;99.90;;;;;;5003016;28;20026;-74
2023/06/07 09:49:26;;;;;;;9.77;3.03;;;20.00;99.90;;;;;;5015012;28;20105;-71
2023/06/07 09:51:53;;;;;;;8.15;2.53;;;20.00;99.90;;;;;;5015286;28;20105;-74
2023/06/07 09:54:36;;;;;;;8.37;2.43;;;19.90;99.90;;;;;;5010372;28;20129;-73
2023/06/07 09:57:04;;;;;;;9.65;2.33;;;20.00;99.90;;;;;;5007080;28;20344;-75
2023/06/07 09:59:29;;;;;;;10.82;2.72;;;20.10;99.90;;;;;;5014434;28;20478;-74
2023/06/07 10:01:56;;;;;;;8.32;3.45;;;20.10;99.90;;;;;;5014913;28;20075;-75
2023/06/07 10:04:21;;;;;;;7.78;2.55;;;20.20;99.90;;;;;;5014025;28;20114;-74
2023/06/07 10:06:54;;;;;;;9.13;2.65;;;20.30;99.90;;;;;;5012575;28;20461;-74
2023/06/07 10:09:22;;;;;;;9.30;2.60;;;20.70;99.90;;;;;;5013353;28;20441;-74
2023/06/07 10:11:54;;;;;;;12.73;2.90;;;20.80;99.90;;;;;;5006048;28;20509;-75
2023/06/07 10:14:27;;;;;;;7.22;2.70;;;20.90;99.90;;;;;;5009483;28;20079;-74
2023/06/07 10:17:02;;;;;;;12.18;2.80;;;20.90;99.90;;;;;;5002138;28;20038;-75
2023/06/07 10:19:40;;;;;;;4.70;2.38;;;20.90;99.90;;;;;;4995015;28;20019;-73
2023/06/07 10:22:15;;;;;;;9.77;2.50;;;21.10;99.90;;;;;;4997663;28;20181;-74
2023/06/07 10:25:01;;;;;;;5.63;2.53;;;21.20;99.90;;;;;;5007708;28;20029;-73
2023/06/07 10:27:33;;;;;;;7.10;2.85;;;21.60;99.90;;;;;;5014032;28;20029;-75
2023/06/07 10:30:09;;;;;;;9.15;3.28;;;21.80;99.90;;;;;;5013689;28;20192;-74
2023/06/07 10:32:38;;;;;;;4.50;2.22;;;22.00;99.90;;;;;;5008950;28;20056;-73
2023/06/07 10:35:08;;;;;;;7.57;2.65;;;22.30;99.90;;;;;;4997919;28;20022;-73
2023/06/07 10:37:36;;;;;;;6.75;2.38;;;22.40;99.90;;;;;;5008573;28;20034;-74
2023/06/07 10:40:09;;;;;;;9.20;2.75;;;22.60;99.90;;;;;;5014360;28;20363;-73
2023/06/07 10:42:35;;;;;;;6.13;2.60;;;22.70;99.90;;;;;;5013899;28;20105;-73
2023/06/07 10:45:02;;;;;;;4.57;1.83;;;22.80;99.90;;;;;;5014450;28;20111;-73
2023/06/07 10:47:29;;;;;;;5.65;2.20;;;22.80;99.90;;;;;;5020429;28;20234;-73
2023/06/07 10:49:55;;;;;;;;;;;22.60;99.90;;;;;;5012459;28;20022;-74
2023/06/07 10:52:24;;;;;;;6.38;2.50;;;22.60;99.90;;;;;;5011312;28;19917;-73
2023/06/07 10:54:49;;;;;;;7.85;2.70;;;22.50;99.90;;;;;;5010273;28;20042;-73
2023/06/07 10:57:37;;;;;;;10.30;3.35;;;22.50;99.90;;;;;;5010909;28;20038;-73
2023/06/07 11:00:24;;;;;;;;;;;22.50;99.90;;;;;;5011591;28;20026;-73
2023/06/07 11:02:49;;;;;;;7.30;2.95;;;22.40;99.90;;;;;;5011462;28;19909;-75
2023/06/07 11:05:15;;;;;;;4.53;2.45;;;22.20;99.90;;;;;;5011110;28;20406;-74
2023/06/07 11:07:47;;;;;;;5.57;2.45;;;22.20;99.90;;;;;;5011120;28;20041;-72
2023/06/07 11:10:21;;;;;;;9.40;2.30;;;22.30;99.90;;;;;;5002232;28;20026;-72
2023/06/07 11:12:54;;;;;;;13.57;4.25;;;22.40;99.90;;;;;;5004547;28;20038;-73
2023/06/07 11:15:20;;;;;;;6.95;2.38;;;22.40;99.90;;;;;;5010893;28;20109;-73
2023/06/07 11:18:04;;;;;;;8.00;2.55;;;22.30;99.90;;;;;;4994528;28;20042;-73
2023/06/07 11:20:38;;;;;;;6.43;2.13;;;22.30;99.90;;;;;;5007530;28;20022;-74
2023/06/07 11:23:23;;;;;;;6.85;2.42;;;22.30;99.90;;;;;;5002631;28;20458;-73
2023/06/07 11:26:00;;;;;;;8.75;2.65;;;22.20;99.90;;;;;;5012883;28;20026;-73
2023/06/07 11:28:28;;;;;;;5.53;3.42;;;22.20;99.90;;;;;;5011452;28;20057;-73
2023/06/07 11:30:55;;;;;;;5.78;3.10;;;22.10;99.90;;;;;;5013305;28;20026;-73
2023/06/07 11:33:23;;;;;;;5.35;2.25;;;22.10;99.90;;;;;;5012610;28;20022;-74
2023/06/07 11:35:50;;;;;;;6.90;2.00;;;22.20;99.90;;;;;;5012756;28;20030;-75
2023/06/07 11:38:16;;;;;;;3.63;2.30;;;22.10;99.90;;;;;;5028679;28;20018;-74
2023/06/07 11:40:43;;;;;;;8.05;2.33;;;22.20;99.90;;;;;;5012807;28;20080;-74
2023/06/07 11:43:11;;;;;;;8.95;3.08;;;22.20;99.90;;;;;;5012861;28;20076;-74
2023/06/07 11:45:40;;;;;;;7.85;2.65;;;22.20;99.90;;;;;;5012917;28;20105;-73
2023/06/07 11:48:06;;;;;;;9.15;2.70;;;22.20;99.90;;;;;;5017457;28;20032;-74
2023/06/07 11:50:34;;;;;;;5.90;2.33;;;22.20;99.90;;;;;;5032150;28;20025;-73
2023/06/07 11:53:00;;;;;;;6.78;2.35;;;22.10;99.90;;;;;;5012835;28;20026;-73
2023/06/07 11:55:26;;;;;;;12.93;2.58;;;22.20;99.90;;;;;;5007316;28;20367;-74
2023/06/07 11:57:53;;;;;;;7.95;2.63;;;22.00;99.90;;;;;;5004852;28;20026;-74
2023/06/07 12:00:23;;;;;;;3.72;2.00;;;21.90;99.90;;;;;;5002018;28;20538;-73
2023/06/07 12:02:52;;;;;;;8.00;2.17;;;22.10;99.90;;;;;;4994059;28;20057;-73
2023/06/07 12:05:19;;;;;;;13.35;3.50;;;22.10;99.90;;;;;;5005949;28;20034;-74
2023/06/07 12:07:53;;;;;;;6.05;2.40;;;22.00;99.90;;;;;;5009094;28;20025;-74
2023/06/07 12:10:27;;;;;;;10.73;2.78;;;21.80;99.90;;;;;;5014108;28;20064;-73
2023/06/07 12:13:13;;;;;;;7.57;2.45;;;21.60;99.90;;;;;;5028992;28;20482;-74
2023/06/07 12:15:46;;;;;;;8.75;2.22;;;21.60;99.90;;;;;;5014555;28;20030;-73
2023/06/07 12:18:17;;;;;;;10.13;2.80;;;21.50;99.90;;;;;;5016408;28;20034;-74
2023/06/07 12:20:44;;;;;;;8.30;2.45;;;21.50;99.90;;;;;;5014566;28;20113;-72
2023/06/07 12:23:13;;;;;;;;;;;21.80;99.90;;;;;;5016337;28;20030;-73
2023/06/07 12:25:42;;;;;;;8.85;2.67;;;22.10;99.90;;;;;;5014941;28;20325;-74
2023/06/07 12:28:14;;;;;;;5.95;2.40;;;22.20;99.90;;;;;;5016560;28;20054;-74
2023/06/07 12:30:47;;;;;;;12.35;2.65;;;22.20;99.90;;;;;;5015882;28;20124;-74
2023/06/07 12:33:16;;;;;;;8.82;2.60;;;22.30;99.90;;;;;;5016915;28;20087;-75
2023/06/07 12:35:48;;;;;;;8.27;2.38;;;22.20;99.90;;;;;;5015577;28;20038;-74
2023/06/07 12:38:14;;;;;;;10.27;3.03;;;21.90;99.90;;;;;;5011594;28;20034;-73
2023/06/07 12:40:40;;;;;;;11.45;3.05;;;21.60;99.90;;;;;;4999882;28;20025;-74
2023/06/07 12:43:06;;;;;;;11.57;2.40;;;21.70;99.90;;;;;;5016462;28;20066;-74
2023/06/07 12:45:32;;;;;;;11.60;3.25;;;21.90;99.90;;;;;;5015992;28;20364;-74
2023/06/07 12:47:57;;;;;;;8.32;2.25;;;22.00;99.90;;;;;;5015912;28;20433;-74